Snover, Michigan
Current Conditions -  °F | °C
As of 3:38 PM on Thursday 23 Oct 2014 (Local Time) from KBAX Reporting Station
Clear Clear  
Wind Chill:   Ceiling: Unl
Heat Index: 10°   Visibility: 10mi
Dew Point:   Wind: 5mph
Humidity: 74%   Direction: 250°WSW
Pressure: 30.16"   Gusts: NA
Location:  43.46°N, 82.97°W
Report Text: KBAX 231938Z AUTO 25004KT 10SM CLR 10/05 A3016 RMK AO2 T00960051
Loading
Personal Weather Stations






























Interactive Weather Map
Tropical Storm Tracking
New forecast layout! Learn more

10-Day Weather Forecast

Advertisements
Track Severe Weather on mobile